Latest Coastal Weather Observations for Adele Island

IDW60701

Issued at 6:32 pm WST Wednesday 2 September 2015 (issued every 10 minutes, with the page automatically refreshed every 10 minutes)

About coastal observations | Map of coastal stations | Coastal observations for WA | Marine services | Other Formats
Station Details ID: 200735 Name: ADELE ISLAND Lat: -15.51 Lon: 123.16 Height: 4.6 m
Data from the previous 72 hours. | See also: Recent months at Adele Island
Date/Time
WST
Temp

°C
Wind Pressure Rain
since 9am
mm
Weather Cloud Vis
km
Sea
Height
m
Swell
Dir
 
Speed
knots
Gust
knots
hPa Trend Height
m
Period
s
Dir
02/06:30pm 24.3 SW 11 13 1015.4 - - - - - - - - -
02/06:00pm 24.1 WSW 10 13 1015.0 - - - - - - - - -
02/05:30pm 24.6 WSW 10 12 1014.8 - - - - - - - - -
02/05:00pm 24.8 WSW 9 12 1014.7 - - - - - - - - -
02/04:30pm 25.3 WSW 9 12 1014.6 - - - - - - - - -
02/04:00pm 25.4 WSW 10 13 1014.5 - - - - - - - - -
02/03:30pm 25.8 WSW 9 12 1014.4 - - - - - - - - -
02/03:00pm 25.1 W 9 11 1014.4 - - - - - - - - -
02/02:30pm 26.4 WSW 8 11 1014.4 - - - - - - - - -
02/02:00pm 25.7 W 8 10 1014.6 - - - - - - - - -
02/01:30pm 25.7 WSW 8 11 1014.9 - - - - - - - - -
02/01:00pm 25.4 W 7 9 1015.3 - - - - - - - - -
02/12:30pm 25.7 W 7 10 1015.6 - - - - - - - - -
02/12:00pm 25.3 W 8 10 1015.9 - - - - - - - - -
02/11:30am 26.4 SW 8 11 1016.3 - - - - - - - - -
02/11:00am 25.3 WSW 7 10 1016.7 - - - - - - - - -
02/10:30am 25.3 WSW 7 9 1017.0 - - - - - - - - -
02/10:00am 25.6 WSW 6 10 1017.2 - - - - - - - - -
02/09:30am 26.0 WSW 3 6 1017.3 - - - - - - - - -
02/09:00am 25.5 WSW 3 5 1017.4 - - - - - - - - -
02/08:30am 25.3 W 2 5 1017.1 - - - - - - - - -
02/08:00am 24.8 W 3 6 1016.8 - - - - - - - - -
02/07:30am 24.6 SSW 4 5 1016.6 - - - - - - - - -
02/07:00am 23.7 SSW 2 3 1016.1 - - - - - - - - -
02/06:30am 23.5 SSW 5 6 1015.9 - - - - - - - - -
02/06:00am 23.4 SSW 6 7 1015.5 - - - - - - - - -
02/05:30am 23.4 SSW 6 7 1015.1 - - - - - - - - -
02/05:00am 23.8 S 6 7 1014.9 - - - - - - - - -
02/04:30am 23.5 SSW 6 7 1014.7 - - - - - - - - -
02/04:00am 23.9 SSW 7 8 1014.7 - - - - - - - - -
02/03:30am 24.0 SW 7 8 1014.9 - - - - - - - - -
02/03:00am 24.0 SW 7 9 1015.0 - - - - - - - - -
02/02:30am 23.8 SW 8 9 1014.9 - - - - - - - - -
02/02:00am 24.0 SW 8 10 1014.9 - - - - - - - - -
02/01:30am 23.7 SW 7 9 1015.0 - - - - - - - - -
02/01:00am 24.3 SW 8 10 1015.2 - - - - - - - - -
02/12:30am 23.9 SW 8 10 1015.3 - - - - - - - - -
02/12:00am 24.0 SW 8 10 1015.5 - - - - - - - - -
 
Date/Time
WST
Temp

°C
Wind Pressure Rain
since 9am
mm
Weather Cloud Vis
km
Sea
Height
m
Swell
Dir
 
Speed
knots
Gust
knots
hPa Trend Height
m
Period
s
Dir
01/11:30pm 24.3 SW 8 11 1015.8 - - - - - - - - -
01/11:00pm 24.5 SW 9 11 1015.9 - - - - - - - - -
01/10:30pm 24.1 WSW 9 11 1015.8 - - - - - - - - -
01/10:00pm 23.9 WSW 9 11 1015.7 - - - - - - - - -
01/09:30pm 23.7 WSW 8 9 1015.9 - - - - - - - - -
01/09:00pm 24.3 WSW 8 11 1015.9 - - - - - - - - -
01/08:30pm 24.5 WSW 9 11 1015.7 - - - - - - - - -
01/08:00pm 24.1 W 8 10 1015.4 - - - - - - - - -
01/07:30pm 24.4 W 8 11 1015.1 - - - - - - - - -
01/07:00pm 24.5 W 9 11 1014.7 - - - - - - - - -
01/06:30pm 24.4 WSW 8 10 1014.3 - - - - - - - - -
01/06:00pm 24.7 WSW 9 11 1014.0 - - - - - - - - -
01/05:30pm 24.8 WSW 8 12 1013.8 - - - - - - - - -
01/05:00pm 25.3 W 8 11 1013.6 - - - - - - - - -
01/04:30pm 26.0 WSW 8 10 1013.5 - - - - - - - - -
01/04:00pm 26.1 WSW 8 11 1013.3 - - - - - - - - -
01/03:30pm 25.6 W 9 11 1013.4 - - - - - - - - -
01/03:00pm 26.5 WSW 9 11 1013.5 - - - - - - - - -
01/02:30pm 26.4 WNW 8 11 1013.6 - - - - - - - - -
01/02:00pm 27.2 WNW 7 9 1013.6 - - - - - - - - -
01/01:30pm 25.8 WNW 7 9 1013.9 - - - - - - - - -
01/01:00pm 26.1 W 8 11 1014.3 - - - - - - - - -
01/12:30pm 26.9 WNW 7 10 1014.5 - - - - - - - - -
01/12:00pm 25.6 W 8 10 1014.8 - - - - - - - - -
01/11:30am 26.4 W 8 10 1015.2 - - - - - - - - -
01/11:00am 26.0 WSW 8 11 1015.6 - - - - - - - - -
01/10:30am 26.4 WSW 9 11 1016.0 - - - - - - - - -
01/10:00am 25.8 SW 9 12 1016.2 - - - - - - - - -
01/09:30am 25.4 SW 9 12 1016.3 - - - - - - - - -
01/09:00am 25.7 SW 3 6 1016.2 - - - - - - - - -
01/08:30am 25.8 WSW 8 10 1016.1 - - - - - - - - -
01/08:00am 25.3 WSW 7 9 1015.7 - - - - - - - - -
01/07:30am 24.7 W 7 10 1015.5 - - - - - - - - -
01/07:00am 24.3 W 7 8 1015.4 - - - - - - - - -
01/06:30am 23.8 SW 8 10 1015.0 - - - - - - - - -
01/06:00am 23.7 WSW 9 12 1014.7 - - - - - - - - -
01/05:30am 23.7 WSW 10 12 1014.4 - - - - - - - - -
01/05:00am 23.9 SW 9 11 1014.0 - - - - - - - - -
01/04:30am 23.9 SW 10 12 1013.8 - - - - - - - - -
01/04:00am 23.7 SW 10 12 1013.6 - - - - - - - - -
01/03:30am 24.0 SW 11 14 1013.6 - - - - - - - - -
01/03:00am 24.1 SW 11 14 1013.7 - - - - - - - - -
01/02:30am 23.9 SW 9 12 1013.8 - - - - - - - - -
01/02:00am 24.0 SW 9 12 1013.9 - - - - - - - - -
01/01:30am 24.3 SSW 10 13 1014.0 - - - - - - - - -
01/01:00am 24.3 SSW 11 13 1014.3 - - - - - - - - -
01/12:30am 24.6 SW 11 13 1014.6 - - - - - - - - -
01/12:00am 24.4 SW 10 13 1014.9 - - - - - - - - -
 
Date/Time
WST
Temp

°C
Wind Pressure Rain
since 9am
mm
Weather Cloud Vis
km
Sea
Height
m
Swell
Dir
 
Speed
knots
Gust
knots
hPa Trend Height
m
Period
s
Dir
31/11:30pm 24.6 SSW 12 14 1015.2 - - - - - - - - -
31/11:00pm 24.8 SSW 11 13 1015.5 - - - - - - - - -
31/10:30pm 24.7 SSW 11 14 1015.6 - - - - - - - - -
31/10:00pm 24.5 SSW 12 14 1015.6 - - - - - - - - -
31/09:30pm 24.3 SW 11 14 1015.8 - - - - - - - - -
31/09:00pm 24.2 SW 11 13 1015.8 - - - - - - - - -
31/08:30pm 24.4 SW 11 13 1015.7 - - - - - - - - -
31/08:00pm 24.3 SW 11 13 1015.5 - - - - - - - - -
31/07:30pm 24.6 SW 11 15 1015.1 - - - - - - - - -
31/07:00pm 24.6 SW 12 14 1014.9 - - - - - - - - -
31/06:30pm 24.6 WSW 12 15 1014.7 - - - - - - - - -
31/06:00pm 24.8 WSW 13 17 1014.5 - - - - - - - - -
31/05:30pm 25.0 WSW 12 14 1014.5 - - - - - - - - -
31/05:00pm 25.5 W 11 14 1014.4 - - - - - - - - -
31/04:30pm 25.9 W 11 14 1014.3 - - - - - - - - -
31/04:00pm 26.2 W 11 15 1014.2 - - - - - - - - -
31/03:30pm 26.0 W 12 15 1014.1 - - - - - - - - -
31/03:00pm 26.9 WSW 11 15 1014.1 - - - - - - - - -
31/02:30pm 26.9 WSW 12 14 1014.4 - - - - - - - - -
31/02:00pm 26.6 WSW 11 14 1014.7 - - - - - - - - -
31/01:30pm 27.0 SW 11 14 1015.0 - - - - - - - - -
31/01:00pm 27.2 WSW 11 14 1015.2 - - - - - - - - -
31/12:30pm 27.2 WSW 10 13 1015.3 - - - - - - - - -
31/12:00pm 26.5 WSW 11 13 1015.5 - - - - - - - - -
31/11:30am 26.9 WSW 11 13 1015.9 - - - - - - - - -
31/11:00am 26.4 SW 11 13 1016.3 - - - - - - - - -
31/10:30am 26.4 SW 10 13 1016.7 - - - - - - - - -
31/10:00am 26.6 SW 9 12 1017.0 - - - - - - - - -
31/09:30am 26.2 SSW 9 11 1017.0 - - - - - - - - -
31/09:00am 26.0 SW 9 11 1017.0 - - - - - - - - -
31/08:30am 26.2 SSW 9 11 1016.7 - - - - - - - - -
31/08:00am 25.6 SW 10 12 1016.5 - - - - - - - - -
31/07:30am 25.4 S 9 11 1016.2 - - - - - - - - -
31/07:00am 25.0 S 8 11 1016.0 - - - - - - - - -
31/06:30am 24.4 S 9 12 1015.8 - - - - - - - - -
31/06:00am 24.3 SSW 11 14 1015.4 - - - - - - - - -
31/05:30am 24.0 S 10 13 1015.0 - - - - - - - - -
31/05:00am 24.1 S 11 14 1014.8 - - - - - - - - -
31/04:30am 24.2 S 12 16 1014.6 - - - - - - - - -
31/04:00am 24.1 S 13 16 1014.6 - - - - - - - - -
31/03:30am 24.1 S 13 17 1014.7 - - - - - - - - -
31/03:00am 24.1 SSW 14 19 1014.7 - - - - - - - - -
31/02:30am 24.3 SSW 16 19 1014.8 - - - - - - - - -
31/02:00am 24.3 SSW 16 19 1015.0 - - - - - - - - -
31/01:30am 24.3 SSW 16 19 1015.4 - - - - - - - - -
31/01:00am 24.5 SSW 15 18 1015.6 - - - - - - - - -
31/12:30am 24.5 SSW 14 18 1015.9 - - - - - - - - -
31/12:00am 24.7 SSW 16 20 1016.2 - - - - - - - - -
 
Date/Time
WST
Temp

°C
Wind Pressure Rain
since 9am
mm
Weather Cloud Vis
km
Sea
Height
m
Swell
Dir
 
Speed
knots
Gust
knots
hPa Trend Height
m
Period
s
Dir
30/11:30pm 24.7 SSW 16 19 1016.5 - - - - - - - - -
30/11:00pm 24.7 SW 15 18 1016.5 - - - - - - - - -
30/10:30pm 24.7 SW 15 18 1016.7 - - - - - - - - -
30/10:00pm 24.7 SW 15 19 1016.7 - - - - - - - - -
30/09:30pm 24.8 SW 14 18 1016.8 - - - - - - - - -
30/09:00pm 24.7 SW 14 19 1016.8 - - - - - - - - -
30/08:30pm 24.6 SW 15 18 1016.6 - - - - - - - - -
30/08:00pm 24.6 SW 13 16 1016.5 - - - - - - - - -
30/07:30pm 24.7 SW 13 16 1016.4 - - - - - - - - -
30/07:00pm 24.6 SW 11 15 1016.2 - - - - - - - - -

Other Formats:

Comma delimited format used in spreadsheet applications
http://www.bom.gov.au/fwo/IDW60701/IDW60701.94210.axf

JavaScript Object Notation format (JSON) in row-major order
http://www.bom.gov.au/fwo/IDW60701/IDW60701.94210.json